sensor_id;sensor_type;location;lat;lon;timestamp;P1;durP1;ratioP1;P2;durP2;ratioP2
8913;SDS011;4492;48.736;9.092;2023-04-03T00:02:02;3.90;;;2.63;;
8913;SDS011;4492;48.736;9.092;2023-04-03T00:04:28;4.87;;;2.80;;
8913;SDS011;4492;48.736;9.092;2023-04-03T00:06:53;2.93;;;2.40;;
8913;SDS011;4492;48.736;9.092;2023-04-03T00:09:19;3.37;;;2.30;;
8913;SDS011;4492;48.736;9.092;2023-04-03T00:11:45;3.80;;;2.40;;
8913;SDS011;4492;48.736;9.092;2023-04-03T00:14:10;3.50;;;2.50;;
8913;SDS011;4492;48.736;9.092;2023-04-03T00:16:36;3.57;;;2.53;;
8913;SDS011;4492;48.736;9.092;2023-04-03T00:19:01;2.83;;;2.30;;
8913;SDS011;4492;48.736;9.092;2023-04-03T00:21:27;2.60;;;2.40;;
8913;SDS011;4492;48.736;9.092;2023-04-03T00:23:53;2.83;;;2.47;;
8913;SDS011;4492;48.736;9.092;2023-04-03T00:26:18;3.67;;;2.47;;
8913;SDS011;4492;48.736;9.092;2023-04-03T00:28:44;3.90;;;2.87;;
8913;SDS011;4492;48.736;9.092;2023-04-03T00:31:10;2.73;;;2.43;;
8913;SDS011;4492;48.736;9.092;2023-04-03T00:33:36;3.20;;;2.70;;
8913;SDS011;4492;48.736;9.092;2023-04-03T00:36:05;4.47;;;2.43;;
8913;SDS011;4492;48.736;9.092;2023-04-03T00:38:31;4.97;;;2.67;;
8913;SDS011;4492;48.736;9.092;2023-04-03T00:40:57;5.17;;;2.67;;
8913;SDS011;4492;48.736;9.092;2023-04-03T00:43:23;3.23;;;2.63;;
8913;SDS011;4492;48.736;9.092;2023-04-03T00:45:52;3.17;;;2.73;;
8913;SDS011;4492;48.736;9.092;2023-04-03T00:48:29;3.83;;;2.30;;
8913;SDS011;4492;48.736;9.092;2023-04-03T00:50:57;2.87;;;2.63;;
8913;SDS011;4492;48.736;9.092;2023-04-03T00:53:31;3.47;;;2.33;;
8913;SDS011;4492;48.736;9.092;2023-04-03T00:56:02;3.30;;;2.33;;
8913;SDS011;4492;48.736;9.092;2023-04-03T00:58:36;2.97;;;2.50;;
8913;SDS011;4492;48.736;9.092;2023-04-03T01:01:05;5.30;;;2.73;;
8913;SDS011;4492;48.736;9.092;2023-04-03T01:03:33;2.90;;;2.40;;
8913;SDS011;4492;48.736;9.092;2023-04-03T01:05:59;4.47;;;2.57;;
8913;SDS011;4492;48.736;9.092;2023-04-03T01:08:25;3.67;;;2.20;;
8913;SDS011;4492;48.736;9.092;2023-04-03T01:10:51;3.17;;;2.43;;
8913;SDS011;4492;48.736;9.092;2023-04-03T01:13:17;5.37;;;2.67;;
8913;SDS011;4492;48.736;9.092;2023-04-03T01:15:54;4.93;;;2.70;;
8913;SDS011;4492;48.736;9.092;2023-04-03T01:18:20;4.03;;;2.80;;
8913;SDS011;4492;48.736;9.092;2023-04-03T01:25:53;3.20;;;2.33;;
8913;SDS011;4492;48.736;9.092;2023-04-03T01:28:22;2.73;;;2.53;;
8913;SDS011;4492;48.736;9.092;2023-04-03T01:30:53;3.43;;;2.30;;
8913;SDS011;4492;48.736;9.092;2023-04-03T01:33:43;3.13;;;2.50;;
8913;SDS011;4492;48.736;9.092;2023-04-03T01:36:10;4.07;;;2.70;;
8913;SDS011;4492;48.736;9.092;2023-04-03T01:38:43;3.17;;;2.07;;
8913;SDS011;4492;48.736;9.092;2023-04-03T01:41:09;7.23;;;2.70;;
8913;SDS011;4492;48.736;9.092;2023-04-03T01:43:34;3.17;;;2.47;;
8913;SDS011;4492;48.736;9.092;2023-04-03T01:46:00;2.40;;;2.20;;
8913;SDS011;4492;48.736;9.092;2023-04-03T01:48:25;3.97;;;2.80;;
8913;SDS011;4492;48.736;9.092;2023-04-03T01:50:51;4.33;;;2.67;;
8913;SDS011;4492;48.736;9.092;2023-04-03T01:53:16;3.67;;;2.50;;
8913;SDS011;4492;48.736;9.092;2023-04-03T01:55:42;4.03;;;2.80;;
8913;SDS011;4492;48.736;9.092;2023-04-03T01:58:07;6.33;;;2.50;;
8913;SDS011;4492;48.736;9.092;2023-04-03T02:00:33;4.13;;;2.40;;
8913;SDS011;4492;48.736;9.092;2023-04-03T02:02:58;5.67;;;2.67;;
8913;SDS011;4492;48.736;9.092;2023-04-03T02:05:24;3.00;;;2.70;;
8913;SDS011;4492;48.736;9.092;2023-04-03T02:07:49;3.03;;;2.30;;
8913;SDS011;4492;48.736;9.092;2023-04-03T02:10:15;2.60;;;2.40;;
8913;SDS011;4492;48.736;9.092;2023-04-03T02:12:41;4.37;;;2.60;;
8913;SDS011;4492;48.736;9.092;2023-04-03T02:15:06;3.73;;;2.80;;
8913;SDS011;4492;48.736;9.092;2023-04-03T02:17:32;3.33;;;2.60;;
8913;SDS011;4492;48.736;9.092;2023-04-03T02:19:59;3.43;;;2.63;;
8913;SDS011;4492;48.736;9.092;2023-04-03T02:22:25;2.47;;;2.20;;
8913;SDS011;4492;48.736;9.092;2023-04-03T02:24:50;3.67;;;2.77;;
8913;SDS011;4492;48.736;9.092;2023-04-03T02:27:16;3.77;;;2.50;;
8913;SDS011;4492;48.736;9.092;2023-04-03T02:29:42;2.50;;;2.30;;
8913;SDS011;4492;48.736;9.092;2023-04-03T02:32:08;4.90;;;2.90;;
8913;SDS011;4492;48.736;9.092;2023-04-03T02:34:33;4.03;;;2.40;;
8913;SDS011;4492;48.736;9.092;2023-04-03T02:36:59;4.13;;;2.50;;
8913;SDS011;4492;48.736;9.092;2023-04-03T02:39:25;2.77;;;2.50;;
8913;SDS011;4492;48.736;9.092;2023-04-03T02:41:51;3.87;;;2.60;;
8913;SDS011;4492;48.736;9.092;2023-04-03T02:44:16;3.97;;;2.60;;
8913;SDS011;4492;48.736;9.092;2023-04-03T02:46:42;2.40;;;2.20;;
8913;SDS011;4492;48.736;9.092;2023-04-03T02:49:08;2.73;;;2.47;;
8913;SDS011;4492;48.736;9.092;2023-04-03T02:51:33;4.03;;;2.50;;
8913;SDS011;4492;48.736;9.092;2023-04-03T02:53:59;4.27;;;2.70;;
8913;SDS011;4492;48.736;9.092;2023-04-03T02:56:25;3.47;;;2.40;;
8913;SDS011;4492;48.736;9.092;2023-04-03T02:58:51;4.00;;;2.30;;
8913;SDS011;4492;48.736;9.092;2023-04-03T03:01:17;5.07;;;2.53;;
8913;SDS011;4492;48.736;9.092;2023-04-03T03:03:43;2.20;;;2.00;;
8913;SDS011;4492;48.736;9.092;2023-04-03T03:06:12;3.33;;;2.60;;
8913;SDS011;4492;48.736;9.092;2023-04-03T03:08:40;2.73;;;2.20;;
8913;SDS011;4492;48.736;9.092;2023-04-03T03:11:06;2.97;;;2.67;;
8913;SDS011;4492;48.736;9.092;2023-04-03T03:13:32;5.53;;;2.73;;
8913;SDS011;4492;48.736;9.092;2023-04-03T03:15:57;2.77;;;2.57;;
8913;SDS011;4492;48.736;9.092;2023-04-03T03:18:23;2.63;;;2.37;;
8913;SDS011;4492;48.736;9.092;2023-04-03T03:20:53;3.63;;;2.50;;
8913;SDS011;4492;48.736;9.092;2023-04-03T03:23:20;3.47;;;2.30;;
8913;SDS011;4492;48.736;9.092;2023-04-03T03:25:47;2.50;;;2.30;;
8913;SDS011;4492;48.736;9.092;2023-04-03T03:28:13;4.07;;;2.43;;
8913;SDS011;4492;48.736;9.092;2023-04-03T03:30:39;3.00;;;2.37;;
8913;SDS011;4492;48.736;9.092;2023-04-03T03:33:04;2.70;;;2.40;;
8913;SDS011;4492;48.736;9.092;2023-04-03T03:35:30;3.63;;;2.50;;
8913;SDS011;4492;48.736;9.092;2023-04-03T03:37:55;3.07;;;2.33;;
8913;SDS011;4492;48.736;9.092;2023-04-03T03:40:20;3.30;;;2.10;;
8913;SDS011;4492;48.736;9.092;2023-04-03T03:42:46;4.73;;;2.70;;
8913;SDS011;4492;48.736;9.092;2023-04-03T03:45:12;3.17;;;2.23;;
8913;SDS011;4492;48.736;9.092;2023-04-03T03:47:37;3.00;;;2.40;;
8913;SDS011;4492;48.736;9.092;2023-04-03T03:50:03;2.73;;;2.20;;
8913;SDS011;4492;48.736;9.092;2023-04-03T03:52:29;2.87;;;2.57;;
8913;SDS011;4492;48.736;9.092;2023-04-03T03:54:55;4.27;;;2.40;;
8913;SDS011;4492;48.736;9.092;2023-04-03T03:57:21;3.20;;;2.43;;
8913;SDS011;4492;48.736;9.092;2023-04-03T03:59:46;2.60;;;2.40;;
8913;SDS011;4492;48.736;9.092;2023-04-03T04:02:13;3.97;;;2.47;;
8913;SDS011;4492;48.736;9.092;2023-04-03T04:04:39;4.60;;;2.97;;
8913;SDS011;4492;48.736;9.092;2023-04-03T04:07:05;2.47;;;2.27;;
8913;SDS011;4492;48.736;9.092;2023-04-03T04:09:30;3.63;;;2.33;;
8913;SDS011;4492;48.736;9.092;2023-04-03T04:11:56;3.00;;;2.60;;
8913;SDS011;4492;48.736;9.092;2023-04-03T04:14:21;2.47;;;2.27;;
8913;SDS011;4492;48.736;9.092;2023-04-03T04:16:47;3.33;;;2.57;;
8913;SDS011;4492;48.736;9.092;2023-04-03T04:19:13;4.73;;;2.00;;
8913;SDS011;4492;48.736;9.092;2023-04-03T04:21:38;3.03;;;2.33;;
8913;SDS011;4492;48.736;9.092;2023-04-03T04:24:04;4.13;;;2.50;;
8913;SDS011;4492;48.736;9.092;2023-04-03T04:26:30;2.63;;;1.90;;
8913;SDS011;4492;48.736;9.092;2023-04-03T04:28:56;5.13;;;2.17;;
8913;SDS011;4492;48.736;9.092;2023-04-03T04:31:22;2.70;;;2.10;;
8913;SDS011;4492;48.736;9.092;2023-04-03T04:33:47;2.70;;;2.50;;
8913;SDS011;4492;48.736;9.092;2023-04-03T04:36:13;2.87;;;2.40;;
8913;SDS011;4492;48.736;9.092;2023-04-03T04:38:39;3.47;;;2.50;;
8913;SDS011;4492;48.736;9.092;2023-04-03T04:41:05;3.73;;;2.30;;
8913;SDS011;4492;48.736;9.092;2023-04-03T04:43:31;2.97;;;2.70;;
8913;SDS011;4492;48.736;9.092;2023-04-03T04:46:03;2.53;;;2.10;;
8913;SDS011;4492;48.736;9.092;2023-04-03T04:48:30;3.83;;;2.33;;
8913;SDS011;4492;48.736;9.092;2023-04-03T04:50:56;2.60;;;2.00;;
8913;SDS011;4492;48.736;9.092;2023-04-03T04:53:21;2.00;;;1.90;;
8913;SDS011;4492;48.736;9.092;2023-04-03T04:55:47;2.77;;;2.10;;
8913;SDS011;4492;48.736;9.092;2023-04-03T04:58:13;3.80;;;2.67;;
8913;SDS011;4492;48.736;9.092;2023-04-03T05:00:38;2.23;;;2.03;;
8913;SDS011;4492;48.736;9.092;2023-04-03T05:03:04;2.13;;;1.70;;
8913;SDS011;4492;48.736;9.092;2023-04-03T05:05:30;1.90;;;1.70;;
8913;SDS011;4492;48.736;9.092;2023-04-03T05:07:55;2.17;;;1.80;;
8913;SDS011;4492;48.736;9.092;2023-04-03T05:10:21;2.73;;;1.63;;
8913;SDS011;4492;48.736;9.092;2023-04-03T05:12:46;2.03;;;1.70;;
8913;SDS011;4492;48.736;9.092;2023-04-03T05:15:12;3.10;;;2.27;;
8913;SDS011;4492;48.736;9.092;2023-04-03T05:17:37;2.93;;;1.90;;
8913;SDS011;4492;48.736;9.092;2023-04-03T05:20:03;1.90;;;1.80;;
8913;SDS011;4492;48.736;9.092;2023-04-03T05:22:30;2.47;;;1.90;;
8913;SDS011;4492;48.736;9.092;2023-04-03T05:24:55;2.23;;;1.90;;
8913;SDS011;4492;48.736;9.092;2023-04-03T05:27:21;2.90;;;1.80;;
8913;SDS011;4492;48.736;9.092;2023-04-03T05:29:48;2.53;;;2.17;;
8913;SDS011;4492;48.736;9.092;2023-04-03T05:32:14;1.67;;;1.57;;
8913;SDS011;4492;48.736;9.092;2023-04-03T05:34:40;1.87;;;1.70;;
8913;SDS011;4492;48.736;9.092;2023-04-03T05:37:05;2.20;;;2.00;;
8913;SDS011;4492;48.736;9.092;2023-04-03T05:39:31;1.90;;;1.70;;
8913;SDS011;4492;48.736;9.092;2023-04-03T05:41:57;4.00;;;2.13;;
8913;SDS011;4492;48.736;9.092;2023-04-03T05:44:22;2.40;;;1.90;;
8913;SDS011;4492;48.736;9.092;2023-04-03T05:46:48;2.83;;;2.07;;
8913;SDS011;4492;48.736;9.092;2023-04-03T05:49:13;2.70;;;1.70;;
8913;SDS011;4492;48.736;9.092;2023-04-03T05:51:39;2.27;;;1.67;;
8913;SDS011;4492;48.736;9.092;2023-04-03T05:56:48;2.40;;;2.20;;
8913;SDS011;4492;48.736;9.092;2023-04-03T05:59:15;2.77;;;2.20;;
8913;SDS011;4492;48.736;9.092;2023-04-03T06:01:41;2.07;;;1.87;;
8913;SDS011;4492;48.736;9.092;2023-04-03T06:04:06;3.50;;;2.00;;
8913;SDS011;4492;48.736;9.092;2023-04-03T06:06:42;2.60;;;1.83;;
8913;SDS011;4492;48.736;9.092;2023-04-03T06:09:08;3.80;;;2.10;;
8913;SDS011;4492;48.736;9.092;2023-04-03T06:11:34;4.53;;;2.13;;
8913;SDS011;4492;48.736;9.092;2023-04-03T06:14:00;3.00;;;2.30;;
8913;SDS011;4492;48.736;9.092;2023-04-03T06:16:25;2.07;;;1.87;;
8913;SDS011;4492;48.736;9.092;2023-04-03T06:18:51;6.77;;;2.13;;
8913;SDS011;4492;48.736;9.092;2023-04-03T06:21:16;5.23;;;2.03;;
8913;SDS011;4492;48.736;9.092;2023-04-03T06:23:42;2.07;;;1.67;;
8913;SDS011;4492;48.736;9.092;2023-04-03T06:26:07;2.20;;;1.90;;
8913;SDS011;4492;48.736;9.092;2023-04-03T06:28:33;2.40;;;2.03;;
8913;SDS011;4492;48.736;9.092;2023-04-03T06:30:58;2.50;;;1.87;;
8913;SDS011;4492;48.736;9.092;2023-04-03T06:33:24;2.47;;;2.10;;
8913;SDS011;4492;48.736;9.092;2023-04-03T06:35:54;3.63;;;1.97;;
8913;SDS011;4492;48.736;9.092;2023-04-03T06:38:21;3.27;;;1.90;;
8913;SDS011;4492;48.736;9.092;2023-04-03T06:40:47;2.50;;;1.80;;
8913;SDS011;4492;48.736;9.092;2023-04-03T06:43:12;3.43;;;1.90;;
8913;SDS011;4492;48.736;9.092;2023-04-03T06:45:38;2.43;;;2.03;;
8913;SDS011;4492;48.736;9.092;2023-04-03T06:48:03;2.47;;;2.27;;
8913;SDS011;4492;48.736;9.092;2023-04-03T06:50:30;3.53;;;2.07;;
8913;SDS011;4492;48.736;9.092;2023-04-03T06:52:55;4.80;;;2.20;;
8913;SDS011;4492;48.736;9.092;2023-04-03T06:55:21;5.80;;;2.27;;
8913;SDS011;4492;48.736;9.092;2023-04-03T06:57:47;2.53;;;2.03;;
8913;SDS011;4492;48.736;9.092;2023-04-03T07:00:13;2.57;;;1.83;;
8913;SDS011;4492;48.736;9.092;2023-04-03T07:02:39;5.13;;;1.80;;
8913;SDS011;4492;48.736;9.092;2023-04-03T07:05:05;3.60;;;1.87;;
8913;SDS011;4492;48.736;9.092;2023-04-03T07:07:31;4.07;;;2.00;;
8913;SDS011;4492;48.736;9.092;2023-04-03T07:09:58;2.13;;;1.77;;
8913;SDS011;4492;48.736;9.092;2023-04-03T07:12:24;2.57;;;2.23;;
8913;SDS011;4492;48.736;9.092;2023-04-03T07:14:51;3.90;;;1.83;;
8913;SDS011;4492;48.736;9.092;2023-04-03T07:17:16;3.20;;;1.97;;
8913;SDS011;4492;48.736;9.092;2023-04-03T07:19:42;3.07;;;1.97;;
8913;SDS011;4492;48.736;9.092;2023-04-03T07:22:07;3.87;;;2.17;;
8913;SDS011;4492;48.736;9.092;2023-04-03T07:24:33;3.37;;;1.67;;
8913;SDS011;4492;48.736;9.092;2023-04-03T07:26:59;2.90;;;1.53;;
8913;SDS011;4492;48.736;9.092;2023-04-03T07:29:26;1.70;;;1.60;;
8913;SDS011;4492;48.736;9.092;2023-04-03T07:31:52;2.03;;;1.87;;
8913;SDS011;4492;48.736;9.092;2023-04-03T07:34:17;7.33;;;2.37;;
8913;SDS011;4492;48.736;9.092;2023-04-03T07:36:43;2.10;;;1.90;;
8913;SDS011;4492;48.736;9.092;2023-04-03T07:39:08;5.73;;;2.13;;
8913;SDS011;4492;48.736;9.092;2023-04-03T07:41:34;2.33;;;1.90;;
8913;SDS011;4492;48.736;9.092;2023-04-03T07:44:00;2.17;;;1.60;;
8913;SDS011;4492;48.736;9.092;2023-04-03T07:46:25;4.70;;;2.30;;
8913;SDS011;4492;48.736;9.092;2023-04-03T07:48:51;2.63;;;2.00;;
8913;SDS011;4492;48.736;9.092;2023-04-03T07:51:17;2.57;;;1.90;;
8913;SDS011;4492;48.736;9.092;2023-04-03T07:53:42;2.47;;;2.27;;
8913;SDS011;4492;48.736;9.092;2023-04-03T07:56:08;5.27;;;2.40;;
8913;SDS011;4492;48.736;9.092;2023-04-03T07:58:34;3.30;;;1.90;;
8913;SDS011;4492;48.736;9.092;2023-04-03T08:01:00;4.10;;;2.17;;
8913;SDS011;4492;48.736;9.092;2023-04-03T08:03:26;4.73;;;2.10;;
8913;SDS011;4492;48.736;9.092;2023-04-03T08:05:52;3.23;;;2.00;;
8913;SDS011;4492;48.736;9.092;2023-04-03T08:08:20;5.77;;;2.10;;
8913;SDS011;4492;48.736;9.092;2023-04-03T08:10:50;5.23;;;2.47;;
8913;SDS011;4492;48.736;9.092;2023-04-03T08:13:18;3.53;;;2.27;;
8913;SDS011;4492;48.736;9.092;2023-04-03T08:15:43;2.30;;;2.00;;
8913;SDS011;4492;48.736;9.092;2023-04-03T08:18:09;5.73;;;2.03;;
8913;SDS011;4492;48.736;9.092;2023-04-03T08:20:35;3.60;;;1.90;;
8913;SDS011;4492;48.736;9.092;2023-04-03T08:23:02;4.67;;;2.10;;
8913;SDS011;4492;48.736;9.092;2023-04-03T08:25:27;3.57;;;2.03;;
8913;SDS011;4492;48.736;9.092;2023-04-03T08:27:54;2.07;;;1.90;;
8913;SDS011;4492;48.736;9.092;2023-04-03T08:30:20;8.30;;;2.07;;
8913;SDS011;4492;48.736;9.092;2023-04-03T08:32:45;11.30;;;2.10;;
8913;SDS011;4492;48.736;9.092;2023-04-03T08:35:11;2.80;;;1.93;;
8913;SDS011;4492;48.736;9.092;2023-04-03T08:37:37;2.83;;;1.93;;
8913;SDS011;4492;48.736;9.092;2023-04-03T08:40:07;3.57;;;1.83;;
8913;SDS011;4492;48.736;9.092;2023-04-03T08:45:16;4.40;;;1.73;;
8913;SDS011;4492;48.736;9.092;2023-04-03T08:47:55;4.70;;;2.17;;
8913;SDS011;4492;48.736;9.092;2023-04-03T08:50:31;2.87;;;1.80;;
8913;SDS011;4492;48.736;9.092;2023-04-03T08:53:02;3.40;;;1.93;;
8913;SDS011;4492;48.736;9.092;2023-04-03T08:55:43;2.07;;;1.80;;
8913;SDS011;4492;48.736;9.092;2023-04-03T08:58:15;3.47;;;1.90;;
8913;SDS011;4492;48.736;9.092;2023-04-03T09:00:56;5.40;;;2.60;;
8913;SDS011;4492;48.736;9.092;2023-04-03T09:03:29;3.37;;;2.20;;
8913;SDS011;4492;48.736;9.092;2023-04-03T09:05:57;2.50;;;2.00;;
8913;SDS011;4492;48.736;9.092;2023-04-03T09:08:37;3.50;;;2.00;;
8913;SDS011;4492;48.736;9.092;2023-04-03T09:16:38;3.60;;;2.17;;
8913;SDS011;4492;48.736;9.092;2023-04-03T09:19:32;3.13;;;2.13;;
8913;SDS011;4492;48.736;9.092;2023-04-03T09:22:25;3.10;;;2.10;;
8913;SDS011;4492;48.736;9.092;2023-04-03T09:25:00;4.17;;;2.23;;
8913;SDS011;4492;48.736;9.092;2023-04-03T09:27:35;2.57;;;2.20;;
8913;SDS011;4492;48.736;9.092;2023-04-03T09:30:00;2.40;;;1.70;;
8913;SDS011;4492;48.736;9.092;2023-04-03T09:32:33;5.27;;;1.90;;
8913;SDS011;4492;48.736;9.092;2023-04-03T09:35:04;1.77;;;1.67;;
8913;SDS011;4492;48.736;9.092;2023-04-03T09:37:48;4.40;;;2.40;;
8913;SDS011;4492;48.736;9.092;2023-04-03T09:42:52;3.50;;;2.10;;
8913;SDS011;4492;48.736;9.092;2023-04-03T09:45:23;3.83;;;2.27;;
8913;SDS011;4492;48.736;9.092;2023-04-03T09:48:07;3.17;;;2.00;;
8913;SDS011;4492;48.736;9.092;2023-04-03T09:58:47;1.90;;;1.80;;
8913;SDS011;4492;48.736;9.092;2023-04-03T10:01:26;2.73;;;1.83;;
8913;SDS011;4492;48.736;9.092;2023-04-03T10:06:56;4.60;;;1.70;;
8913;SDS011;4492;48.736;9.092;2023-04-03T10:09:24;2.23;;;1.80;;
8913;SDS011;4492;48.736;9.092;2023-04-03T10:14:32;2.83;;;1.60;;
8913;SDS011;4492;48.736;9.092;2023-04-03T10:17:09;2.10;;;1.60;;
8913;SDS011;4492;48.736;9.092;2023-04-03T10:27:59;2.43;;;1.60;;
8913;SDS011;4492;48.736;9.092;2023-04-03T10:30:33;2.27;;;1.70;;
8913;SDS011;4492;48.736;9.092;2023-04-03T10:35:49;3.13;;;1.50;;
8913;SDS011;4492;48.736;9.092;2023-04-03T10:46:47;3.23;;;1.77;;
8913;SDS011;4492;48.736;9.092;2023-04-03T10:51:55;2.53;;;1.40;;
8913;SDS011;4492;48.736;9.092;2023-04-03T10:54:40;3.93;;;1.70;;
8913;SDS011;4492;48.736;9.092;2023-04-03T10:57:10;2.97;;;1.90;;
8913;SDS011;4492;48.736;9.092;2023-04-03T10:59:38;2.97;;;1.80;;
8913;SDS011;4492;48.736;9.092;2023-04-03T11:02:20;2.60;;;1.30;;
8913;SDS011;4492;48.736;9.092;2023-04-03T11:05:15;3.47;;;1.80;;
8913;SDS011;4492;48.736;9.092;2023-04-03T11:07:59;3.37;;;1.93;;
8913;SDS011;4492;48.736;9.092;2023-04-03T11:10:44;4.20;;;2.20;;
8913;SDS011;4492;48.736;9.092;2023-04-03T11:13:14;3.93;;;1.97;;
8913;SDS011;4492;48.736;9.092;2023-04-03T11:15:51;4.63;;;1.80;;
8913;SDS011;4492;48.736;9.092;2023-04-03T11:18:21;3.00;;;1.30;;
8913;SDS011;4492;48.736;9.092;2023-04-03T11:21:04;2.73;;;1.60;;
8913;SDS011;4492;48.736;9.092;2023-04-03T11:23:33;5.30;;;1.57;;
8913;SDS011;4492;48.736;9.092;2023-04-03T11:26:13;4.53;;;1.67;;
8913;SDS011;4492;48.736;9.092;2023-04-03T11:28:46;1.43;;;1.33;;
8913;SDS011;4492;48.736;9.092;2023-04-03T11:36:54;2.23;;;1.33;;
8913;SDS011;4492;48.736;9.092;2023-04-03T11:39:25;3.13;;;1.30;;
8913;SDS011;4492;48.736;9.092;2023-04-03T11:42:15;1.90;;;1.37;;
8913;SDS011;4492;48.736;9.092;2023-04-03T11:47:47;3.27;;;1.53;;
8913;SDS011;4492;48.736;9.092;2023-04-03T11:53:01;2.00;;;1.50;;
8913;SDS011;4492;48.736;9.092;2023-04-03T12:05:50;2.53;;;1.40;;
8913;SDS011;4492;48.736;9.092;2023-04-03T12:08:26;1.57;;;1.43;;
8913;SDS011;4492;48.736;9.092;2023-04-03T12:16:19;3.00;;;1.37;;
8913;SDS011;4492;48.736;9.092;2023-04-03T12:26:44;2.87;;;1.40;;
8913;SDS011;4492;48.736;9.092;2023-04-03T12:29:36;2.03;;;1.53;;
8913;SDS011;4492;48.736;9.092;2023-04-03T12:43:59;2.60;;;1.37;;
8913;SDS011;4492;48.736;9.092;2023-04-03T12:46:35;1.63;;;1.23;;
8913;SDS011;4492;48.736;9.092;2023-04-03T12:49:13;2.47;;;1.30;;
8913;SDS011;4492;48.736;9.092;2023-04-03T12:51:49;2.20;;;1.30;;
8913;SDS011;4492;48.736;9.092;2023-04-03T12:54:16;1.97;;;1.47;;
8913;SDS011;4492;48.736;9.092;2023-04-03T12:56:43;1.43;;;1.30;;
8913;SDS011;4492;48.736;9.092;2023-04-03T12:59:26;1.20;;;1.10;;
8913;SDS011;4492;48.736;9.092;2023-04-03T13:01:56;2.67;;;1.40;;
8913;SDS011;4492;48.736;9.092;2023-04-03T13:04:23;3.30;;;1.40;;
8913;SDS011;4492;48.736;9.092;2023-04-03T13:06:49;1.37;;;1.20;;
8913;SDS011;4492;48.736;9.092;2023-04-03T13:09:20;2.43;;;1.20;;
8913;SDS011;4492;48.736;9.092;2023-04-03T13:11:48;3.40;;;1.40;;
8913;SDS011;4492;48.736;9.092;2023-04-03T13:14:23;2.43;;;1.20;;
8913;SDS011;4492;48.736;9.092;2023-04-03T13:16:57;2.87;;;1.53;;
8913;SDS011;4492;48.736;9.092;2023-04-03T13:19:36;4.53;;;1.70;;
8913;SDS011;4492;48.736;9.092;2023-04-03T13:22:03;1.37;;;1.27;;
8913;SDS011;4492;48.736;9.092;2023-04-03T13:24:33;3.30;;;1.57;;
8913;SDS011;4492;48.736;9.092;2023-04-03T13:27:01;1.67;;;1.50;;
8913;SDS011;4492;48.736;9.092;2023-04-03T13:29:29;1.63;;;1.40;;
8913;SDS011;4492;48.736;9.092;2023-04-03T13:31:58;1.90;;;1.23;;
8913;SDS011;4492;48.736;9.092;2023-04-03T13:34:26;2.13;;;1.27;;
8913;SDS011;4492;48.736;9.092;2023-04-03T13:36:55;1.20;;;1.10;;
8913;SDS011;4492;48.736;9.092;2023-04-03T13:39:24;4.07;;;1.40;;
8913;SDS011;4492;48.736;9.092;2023-04-03T13:42:02;2.63;;;1.10;;
8913;SDS011;4492;48.736;9.092;2023-04-03T13:47:39;2.13;;;1.50;;
8913;SDS011;4492;48.736;9.092;2023-04-03T13:50:15;1.97;;;1.50;;
8913;SDS011;4492;48.736;9.092;2023-04-03T13:52:53;3.13;;;1.53;;
8913;SDS011;4492;48.736;9.092;2023-04-03T13:58:00;2.17;;;1.60;;
8913;SDS011;4492;48.736;9.092;2023-04-03T14:03:02;1.73;;;1.40;;
8913;SDS011;4492;48.736;9.092;2023-04-03T14:05:29;3.87;;;1.47;;
8913;SDS011;4492;48.736;9.092;2023-04-03T14:07:54;3.87;;;1.50;;
8913;SDS011;4492;48.736;9.092;2023-04-03T14:10:20;2.40;;;1.40;;
8913;SDS011;4492;48.736;9.092;2023-04-03T14:12:46;3.03;;;1.53;;
8913;SDS011;4492;48.736;9.092;2023-04-03T14:15:16;1.77;;;1.40;;
8913;SDS011;4492;48.736;9.092;2023-04-03T14:17:46;3.47;;;1.20;;
8913;SDS011;4492;48.736;9.092;2023-04-03T14:20:16;2.63;;;1.40;;
8913;SDS011;4492;48.736;9.092;2023-04-03T14:22:43;1.50;;;1.40;;
8913;SDS011;4492;48.736;9.092;2023-04-03T14:25:09;2.50;;;1.73;;
8913;SDS011;4492;48.736;9.092;2023-04-03T14:27:39;3.20;;;1.93;;
8913;SDS011;4492;48.736;9.092;2023-04-03T14:30:08;1.30;;;1.20;;
8913;SDS011;4492;48.736;9.092;2023-04-03T14:32:38;3.20;;;1.57;;
8913;SDS011;4492;48.736;9.092;2023-04-03T14:35:04;2.73;;;1.53;;
8913;SDS011;4492;48.736;9.092;2023-04-03T14:37:30;2.57;;;1.40;;
8913;SDS011;4492;48.736;9.092;2023-04-03T14:39:56;2.23;;;1.67;;
8913;SDS011;4492;48.736;9.092;2023-04-03T14:42:24;1.93;;;1.30;;
8913;SDS011;4492;48.736;9.092;2023-04-03T14:44:52;2.13;;;1.80;;
8913;SDS011;4492;48.736;9.092;2023-04-03T14:47:21;4.30;;;1.43;;
8913;SDS011;4492;48.736;9.092;2023-04-03T14:49:50;2.07;;;1.47;;
8913;SDS011;4492;48.736;9.092;2023-04-03T14:52:18;2.43;;;1.40;;
8913;SDS011;4492;48.736;9.092;2023-04-03T14:54:47;2.57;;;1.40;;
8913;SDS011;4492;48.736;9.092;2023-04-03T14:57:13;2.33;;;1.70;;
8913;SDS011;4492;48.736;9.092;2023-04-03T14:59:41;2.70;;;1.60;;
8913;SDS011;4492;48.736;9.092;2023-04-03T15:02:11;3.40;;;1.60;;
8913;SDS011;4492;48.736;9.092;2023-04-03T15:05:06;3.00;;;1.80;;
8913;SDS011;4492;48.736;9.092;2023-04-03T15:07:35;1.77;;;1.40;;
8913;SDS011;4492;48.736;9.092;2023-04-03T15:10:05;4.87;;;2.37;;
8913;SDS011;4492;48.736;9.092;2023-04-03T15:12:48;2.20;;;1.37;;
8913;SDS011;4492;48.736;9.092;2023-04-03T15:15:15;2.90;;;1.50;;
8913;SDS011;4492;48.736;9.092;2023-04-03T15:17:42;3.20;;;1.60;;
8913;SDS011;4492;48.736;9.092;2023-04-03T15:20:16;3.23;;;1.40;;
8913;SDS011;4492;48.736;9.092;2023-04-03T15:22:43;1.80;;;1.50;;
8913;SDS011;4492;48.736;9.092;2023-04-03T15:25:09;2.73;;;1.50;;
8913;SDS011;4492;48.736;9.092;2023-04-03T15:27:35;1.83;;;1.50;;
8913;SDS011;4492;48.736;9.092;2023-04-03T15:30:03;1.47;;;1.37;;
8913;SDS011;4492;48.736;9.092;2023-04-03T15:32:30;1.43;;;1.30;;
8913;SDS011;4492;48.736;9.092;2023-04-03T15:34:55;4.50;;;1.50;;
8913;SDS011;4492;48.736;9.092;2023-04-03T15:37:21;3.50;;;2.43;;
8913;SDS011;4492;48.736;9.092;2023-04-03T15:39:47;2.00;;;1.20;;
8913;SDS011;4492;48.736;9.092;2023-04-03T15:42:12;1.63;;;1.20;;
8913;SDS011;4492;48.736;9.092;2023-04-03T15:44:38;5.47;;;1.80;;
8913;SDS011;4492;48.736;9.092;2023-04-03T15:47:03;2.93;;;1.70;;
8913;SDS011;4492;48.736;9.092;2023-04-03T15:49:29;1.90;;;1.40;;
8913;SDS011;4492;48.736;9.092;2023-04-03T15:51:57;2.60;;;1.63;;
8913;SDS011;4492;48.736;9.092;2023-04-03T15:54:22;1.80;;;1.50;;
8913;SDS011;4492;48.736;9.092;2023-04-03T15:56:49;2.37;;;1.37;;
8913;SDS011;4492;48.736;9.092;2023-04-03T15:59:15;2.70;;;1.40;;
8913;SDS011;4492;48.736;9.092;2023-04-03T16:01:40;2.40;;;1.90;;
8913;SDS011;4492;48.736;9.092;2023-04-03T16:04:07;2.97;;;1.30;;
8913;SDS011;4492;48.736;9.092;2023-04-03T16:06:34;2.37;;;1.23;;
8913;SDS011;4492;48.736;9.092;2023-04-03T16:08:59;2.33;;;1.70;;
8913;SDS011;4492;48.736;9.092;2023-04-03T16:11:25;2.30;;;1.53;;
8913;SDS011;4492;48.736;9.092;2023-04-03T16:13:52;1.97;;;1.20;;
8913;SDS011;4492;48.736;9.092;2023-04-03T16:16:18;1.83;;;1.73;;
8913;SDS011;4492;48.736;9.092;2023-04-03T16:18:44;2.77;;;1.63;;
8913;SDS011;4492;48.736;9.092;2023-04-03T16:21:12;2.43;;;1.60;;
8913;SDS011;4492;48.736;9.092;2023-04-03T16:23:39;2.00;;;1.37;;
8913;SDS011;4492;48.736;9.092;2023-04-03T16:26:05;4.67;;;1.60;;
8913;SDS011;4492;48.736;9.092;2023-04-03T16:28:30;1.77;;;1.27;;
8913;SDS011;4492;48.736;9.092;2023-04-03T16:30:56;1.97;;;1.60;;
8913;SDS011;4492;48.736;9.092;2023-04-03T16:33:22;3.27;;;1.33;;
8913;SDS011;4492;48.736;9.092;2023-04-03T16:35:49;3.70;;;1.67;;
8913;SDS011;4492;48.736;9.092;2023-04-03T16:38:15;2.03;;;1.30;;
8913;SDS011;4492;48.736;9.092;2023-04-03T16:40:41;1.67;;;1.40;;
8913;SDS011;4492;48.736;9.092;2023-04-03T16:43:06;1.87;;;1.40;;
8913;SDS011;4492;48.736;9.092;2023-04-03T16:45:32;3.80;;;1.90;;
8913;SDS011;4492;48.736;9.092;2023-04-03T16:47:58;1.67;;;1.57;;
8913;SDS011;4492;48.736;9.092;2023-04-03T16:50:23;1.97;;;1.33;;
8913;SDS011;4492;48.736;9.092;2023-04-03T16:52:49;4.30;;;1.90;;
8913;SDS011;4492;48.736;9.092;2023-04-03T16:55:14;1.87;;;1.20;;
8913;SDS011;4492;48.736;9.092;2023-04-03T16:57:40;2.43;;;1.60;;
8913;SDS011;4492;48.736;9.092;2023-04-03T17:00:06;3.50;;;1.73;;
8913;SDS011;4492;48.736;9.092;2023-04-03T17:02:33;2.23;;;1.77;;
8913;SDS011;4492;48.736;9.092;2023-04-03T17:04:58;4.30;;;1.70;;
8913;SDS011;4492;48.736;9.092;2023-04-03T17:07:25;2.03;;;1.60;;
8913;SDS011;4492;48.736;9.092;2023-04-03T17:09:51;1.63;;;1.53;;
8913;SDS011;4492;48.736;9.092;2023-04-03T17:12:18;2.23;;;1.50;;